Hickory Point, Tennessee
Current Conditions -  °F | °C
As of 1:52 PM on Friday 24 Oct 2014 (Local Time) from KCKV Reporting Station
Broken Clouds Broken Clouds  
Wind Chill: 67°   Ceiling: 4500
Heat Index: 67°   Visibility: 10mi
Dew Point: 40°   Wind: 3mph
Humidity: 37%   Direction: NA
Pressure: 30.09"   Gusts: NA
Location:  36.4964°N, 87.234°W
Report Text: KCKV 241852Z AUTO VRB03KT 10SM BKN045 19/04 A3009 RMK AO2 SLP189 T01940044
Loading
Personal Weather Stations






























Interactive Weather Map
Tropical Storm Tracking
New forecast layout! Learn more

10-Day Weather Forecast

Advertisements
Track Severe Weather on mobile